MET6062 - Edinburgh to London Heathrow

Boeing 737-800
G-FLII - Fly UK
1 hr 00 mins
288 nm
Fly UK Codeshare - Daily

Departure

Departing from
Edinburgh (EDI)
Departure gate
1
Scheduled Departure
GMT 1125
Local 1125
METAR EGPH 230020Z 25005KT 6000 FEW041 03/02 Q1025
TAF TAF EGPH 222303Z 2300/2324 22006KT 9999 SCT015 TEMPO 2300/2310 4000 BR PROB30 TEMPO 2303/2308 0600 FG FZFG BKN001 PROB40 TEMPO 2310/2318 7000
  • No charts available

Arrival

Arriving at
London Heathrow (LHR)
Arrival gate
Terminal 3
Scheduled Arrival
GMT 1225
Local 1225
METAR EGLL 230020Z 29001KT 1500 BR NSC M03/M03 Q1029 TEMPO 0500 FZFG
TAF TAF EGLL 222254Z 2300/2406 VRB02KT 2000 BR MIFG FEW045 PROB40 2300/2312 0300 FZFG VV/// PROB30 2312/2320 0500 FG BKN001 PROB40 2320/2406 0300 FZFG VV///

Route Map

Planning Resources

TLA6C DCS LAKEY NUGRA BNN LLE25 LLE09
DCS UN615 LAKEY DCT NUGRA
TLA UN864 DCS UL612 HON BOVVA
TLA UN864 DCS HON
DCT TLA DCT HON DCT TOBID DCT SOPIT DCT BNN DCT
Route:
OFP Layout:
Units:
Detailed Navlog:
ETOPS Planning:
Plan Stepclimbs:
Runway Analysis:
Include NOTAMS:
FIR NOTAMS:
Flight Maps:

Return Flights

MET6061 (Operated by Fly UK)
Boeing 737-800
0955 GMT

Popularity

Hub Current Bids PiReps this month Total PiReps
KMCI 0 0 13
KLAX 0 0 6
KBOS 0 0 0